Time;durP1;ratioP1;P1;durP2;ratioP2;P2;SDS_P1;SDS_P2;PMS_P1;PMS_P2;Temp;Humidity;BMP_temperature;BMP_pressure;BME280_temperature;BME280_humidity;BME280_pressure;Samples;Min_cycle;Max_cycle;Signal;HPM_P1;HPM_P2
2023/07/10 00:03:34;;;;;;;8.80;4.70;;;26.40;52.50;;;;;;222543;1267;22557;-53
2023/07/10 00:08:40;;;;;;;5.00;4.60;;;26.40;52.70;;;;;;222359;1254;22666;-53
2023/07/10 00:13:47;;;;;;;7.50;5.00;;;26.50;52.30;;;;;;222739;1254;26567;-53
2023/07/10 00:18:52;;;;;;;5.30;4.60;;;26.30;52.40;;;;;;222404;1254;24218;-55
2023/07/10 00:23:56;;;;;;;4.70;4.30;;;26.30;52.50;;;;;;222508;1262;24203;-55
2023/07/10 00:29:07;;;;;;;4.30;3.90;;;26.20;52.50;;;;;;222456;1266;22563;-55
2023/07/10 00:34:16;;;;;;;4.60;4.20;;;26.10;52.70;;;;;;222340;1260;22511;-54
2023/07/10 00:39:24;;;;;;;5.50;4.20;;;26.10;52.60;;;;;;222419;1266;22539;-54
2023/07/10 00:44:35;;;;;;;4.60;4.20;;;26.20;52.80;;;;;;222432;1260;22522;-54
2023/07/10 00:50:04;;;;;;;7.00;4.60;;;26.10;53.00;;;;;;222435;1260;24323;-55
2023/07/10 00:55:19;;;;;;;4.60;4.30;;;26.10;52.70;;;;;;222463;1253;22513;-51
2023/07/10 01:00:23;;;;;;;4.50;4.10;;;26.00;52.90;;;;;;222209;1260;22520;-53
2023/07/10 01:05:31;;;;;;;4.80;4.40;;;26.00;52.50;;;;;;222351;1260;22516;-52
2023/07/10 01:10:35;;;;;;;5.90;4.40;;;26.00;52.90;;;;;;222376;1260;23906;-55
2023/07/10 01:15:40;;;;;;;4.50;4.00;;;26.00;52.70;;;;;;222400;1254;22600;-54
2023/07/10 01:20:49;;;;;;;5.60;4.60;;;26.00;52.80;;;;;;222327;1264;22622;-52
2023/07/10 01:25:58;;;;;;;4.20;3.90;;;26.00;53.00;;;;;;222275;1261;25367;-53
2023/07/10 01:31:07;;;;;;;4.60;4.10;;;25.90;53.00;;;;;;222694;1266;26629;-57
2023/07/10 01:36:17;;;;;;;4.60;4.20;;;25.90;53.10;;;;;;222455;1266;22505;-54
2023/07/10 01:41:38;;;;;;;6.30;4.70;;;25.90;53.20;;;;;;222467;1260;22638;-55
2023/07/10 01:46:42;;;;;;;4.70;4.20;;;25.90;53.00;;;;;;222468;1262;22645;-54
2023/07/10 01:51:46;;;;;;;7.00;4.20;;;25.80;53.00;;;;;;222428;1267;24218;-55
2023/07/10 01:56:52;;;;;;;3.70;3.50;;;25.70;53.10;;;;;;222440;1260;22581;-53
2023/07/10 02:01:58;;;;;;;4.60;4.20;;;25.70;52.90;;;;;;222324;1260;25246;-55
2023/07/10 02:07:02;;;;;;;4.40;4.00;;;25.70;52.90;;;;;;222358;1258;22511;-53
2023/07/10 02:12:07;;;;;;;4.60;4.20;;;25.70;52.60;;;;;;222295;1268;24213;-53
2023/07/10 02:17:11;;;;;;;5.00;4.20;;;25.70;52.40;;;;;;222057;1260;343009;-55
2023/07/10 02:22:15;;;;;;;4.50;4.10;;;25.70;52.30;;;;;;222483;1266;22495;-52
2023/07/10 02:27:19;;;;;;;5.40;4.30;;;25.70;52.40;;;;;;222452;1266;25258;-54
2023/07/10 02:32:24;;;;;;;7.40;4.80;;;25.70;52.10;;;;;;222224;1267;22506;-55
2023/07/10 02:37:29;;;;;;;5.30;4.20;;;25.70;52.40;;;;;;222375;1268;25380;-55
2023/07/10 02:42:34;;;;;;;4.00;3.70;;;25.70;52.00;;;;;;222559;1268;22510;-53
2023/07/10 02:47:39;;;;;;;4.40;4.00;;;25.60;52.30;;;;;;222449;1253;25272;-53
2023/07/10 02:52:44;;;;;;;6.70;4.20;;;25.60;52.00;;;;;;222389;1255;22518;-56
2023/07/10 02:57:48;;;;;;;4.60;4.00;;;25.60;51.80;;;;;;222444;1262;25252;-53
2023/07/10 03:02:54;;;;;;;5.70;4.20;;;25.60;51.80;;;;;;222342;1254;22515;-52
2023/07/10 03:07:58;;;;;;;4.40;4.00;;;25.60;52.40;;;;;;222554;1266;22557;-56
2023/07/10 03:13:02;;;;;;;4.80;4.00;;;25.50;51.90;;;;;;222441;1267;24128;-54
2023/07/10 03:18:06;;;;;;;3.40;3.10;;;25.60;51.80;;;;;;222501;1266;22514;-53
2023/07/10 03:23:11;;;;;;;4.30;3.90;;;25.50;52.00;;;;;;222528;1268;22517;-52
2023/07/10 03:28:15;;;;;;;3.70;3.40;;;25.50;52.30;;;;;;222357;1263;25371;-53
2023/07/10 03:33:19;;;;;;;4.70;3.80;;;25.50;51.70;;;;;;222583;1257;25313;-53
2023/07/10 03:38:23;;;;;;;3.80;3.50;;;25.50;51.80;;;;;;222259;1269;25223;-55
2023/07/10 03:43:28;;;;;;;3.80;3.50;;;25.40;52.20;;;;;;222358;1254;22508;-52
2023/07/10 03:48:32;;;;;;;4.30;3.80;;;25.40;51.60;;;;;;222393;1268;22521;-55
2023/07/10 03:53:36;;;;;;;5.10;3.50;;;25.40;51.50;;;;;;222582;1266;22516;-55
2023/07/10 03:58:43;;;;;;;6.70;5.10;;;25.40;51.50;;;;;;222826;1254;22608;-54
2023/07/10 04:03:48;;;;;;;5.70;3.60;;;25.40;51.90;;;;;;222438;1260;22604;-54
2023/07/10 04:08:52;;;;;;;3.90;3.60;;;25.40;51.50;;;;;;222293;1260;25704;-55
2023/07/10 04:13:56;;;;;;;4.40;3.80;;;25.30;51.50;;;;;;222476;1267;24234;-53
2023/07/10 04:19:00;;;;;;;6.60;4.60;;;25.30;51.60;;;;;;222356;1267;22505;-53
2023/07/10 04:24:05;;;;;;;5.00;4.30;;;25.30;51.20;;;;;;222327;1264;25077;-52
2023/07/10 04:29:10;;;;;;;5.30;4.50;;;25.30;51.20;;;;;;222367;1267;22740;-55
2023/07/10 04:34:14;;;;;;;7.10;4.20;;;25.30;51.50;;;;;;222468;1255;22763;-55
2023/07/10 04:39:18;;;;;;;5.30;3.80;;;25.30;51.30;;;;;;222496;1260;22512;-56
2023/07/10 04:44:23;;;;;;;4.40;3.60;;;25.30;51.10;;;;;;222409;1261;22641;-54
2023/07/10 04:49:28;;;;;;;4.40;4.00;;;25.30;51.30;;;;;;222629;1267;24292;-53
2023/07/10 04:54:32;;;;;;;4.10;3.80;;;25.30;51.70;;;;;;222372;1264;22612;-53
2023/07/10 04:59:36;;;;;;;4.30;3.90;;;25.30;51.00;;;;;;222490;1264;24247;-54
2023/07/10 05:04:40;;;;;;;4.10;3.80;;;25.40;51.30;;;;;;222366;1261;22508;-55
2023/07/10 05:09:44;;;;;;;4.40;4.10;;;25.40;51.30;;;;;;222356;1264;22959;-53
2023/07/10 05:14:48;;;;;;;4.30;3.90;;;25.40;51.70;;;;;;222174;1261;22511;-54
2023/07/10 05:19:52;;;;;;;5.90;4.20;;;25.30;51.30;;;;;;222281;1261;22522;-54
2023/07/10 05:24:56;;;;;;;5.00;4.50;;;25.30;51.40;;;;;;222328;1261;22627;-56
2023/07/10 05:30:00;;;;;;;6.60;4.10;;;25.20;51.50;;;;;;222305;1264;22530;-55
2023/07/10 05:35:05;;;;;;;6.80;4.10;;;25.20;51.40;;;;;;222549;1261;22508;-54
2023/07/10 05:40:10;;;;;;;5.50;4.40;;;25.30;51.50;;;;;;222417;1261;25138;-53
2023/07/10 05:45:13;;;;;;;5.10;4.60;;;25.30;51.70;;;;;;222349;1260;22515;-53
2023/07/10 05:50:17;;;;;;;6.50;4.50;;;25.30;51.20;;;;;;222449;1261;22634;-55
2023/07/10 05:55:22;;;;;;;5.10;4.60;;;25.30;51.40;;;;;;222341;1264;22518;-55
2023/07/10 06:00:26;;;;;;;6.00;4.50;;;25.40;51.80;;;;;;222649;1263;25460;-54
2023/07/10 06:05:30;;;;;;;5.10;4.70;;;25.40;51.60;;;;;;222413;1264;25370;-52
2023/07/10 06:10:35;;;;;;;5.30;4.80;;;25.40;52.20;;;;;;222220;1260;24348;-52
2023/07/10 06:15:43;;;;;;;4.80;4.30;;;25.40;51.90;;;;;;222336;1260;26405;-54
2023/07/10 06:20:56;;;;;;;5.30;4.60;;;25.40;52.10;;;;;;222380;1268;22603;-55
2023/07/10 06:26:02;;;;;;;5.90;4.90;;;25.40;53.00;;;;;;222432;1261;24215;-53
2023/07/10 06:31:11;;;;;;;6.70;4.70;;;25.40;53.00;;;;;;222602;1264;24212;-54
2023/07/10 06:36:15;;;;;;;8.40;4.60;;;25.40;52.70;;;;;;222452;1263;24242;-53
2023/07/10 06:41:19;;;;;;;5.20;4.70;;;25.40;53.50;;;;;;222502;1260;22520;-55
2023/07/10 06:46:24;;;;;;;10.70;4.90;;;25.50;52.70;;;;;;222204;1254;22505;-52
2023/07/10 06:51:29;;;;;;;7.60;5.40;;;25.50;52.80;;;;;;222290;1260;22523;-57
2023/07/10 06:56:33;;;;;;;6.30;5.30;;;25.50;54.20;;;;;;222231;1261;24180;-55
2023/07/10 07:01:37;;;;;;;8.30;5.80;;;25.50;53.30;;;;;;222152;1261;22627;-53
2023/07/10 07:06:42;;;;;;;5.80;5.20;;;25.50;54.30;;;;;;222293;1264;25255;-55
2023/07/10 07:11:46;;;;;;;6.10;5.40;;;25.40;53.50;;;;;;222047;1261;26080;-53
2023/07/10 07:16:50;;;;;;;6.30;5.70;;;25.60;54.00;;;;;;222033;1260;22587;-52
2023/07/10 07:21:54;;;;;;;10.10;6.30;;;25.60;54.20;;;;;;222833;1260;24180;-53
2023/07/10 07:26:59;;;;;;;13.50;6.20;;;25.60;54.60;;;;;;222927;1254;25131;-54
2023/07/10 07:32:04;;;;;;;7.80;6.40;;;25.50;55.00;;;;;;222184;1264;24160;-54
2023/07/10 07:37:08;;;;;;;9.10;6.30;;;25.30;55.20;;;;;;223104;1247;26229;-51
2023/07/10 07:42:14;;;;;;;9.80;6.70;;;25.10;55.70;;;;;;222191;1264;22796;-53
2023/07/10 07:47:18;;;;;;;9.60;5.80;;;25.30;55.40;;;;;;222371;1268;24232;-52
2023/07/10 07:52:22;;;;;;;8.00;6.80;;;25.40;55.10;;;;;;222441;1256;26560;-55
2023/07/10 07:57:26;;;;;;;7.40;6.80;;;25.40;55.10;;;;;;222473;1262;22545;-54
2023/07/10 08:02:32;;;;;;;8.10;6.60;;;25.40;55.30;;;;;;222226;1266;24642;-55
2023/07/10 08:07:36;;;;;;;7.80;7.20;;;25.40;55.40;;;;;;222303;1260;24180;-53
2023/07/10 08:12:41;;;;;;;11.00;6.50;;;25.50;55.70;;;;;;222519;1260;22990;-51
2023/07/10 08:17:45;;;;;;;9.60;7.40;;;25.30;56.60;;;;;;222398;1260;22525;-54
2023/07/10 08:22:49;;;;;;;11.90;6.80;;;25.30;57.10;;;;;;222280;1260;25367;-52
2023/07/10 08:27:53;;;;;;;11.40;6.80;;;25.30;57.10;;;;;;222545;1253;23879;-51
2023/07/10 08:32:58;;;;;;;8.30;7.30;;;25.30;57.30;;;;;;222277;1244;24236;-51
2023/07/10 08:38:02;;;;;;;8.90;6.50;;;25.40;57.60;;;;;;222463;1256;22611;-50
2023/07/10 08:43:23;;;;;;;9.20;6.70;;;25.70;55.90;;;;;;222367;1260;23896;-54
2023/07/10 08:48:35;;;;;;;12.40;7.20;;;25.80;55.20;;;;;;222286;1268;23878;-55
2023/07/10 08:53:43;;;;;;;7.70;7.00;;;25.80;55.20;;;;;;222368;1260;24224;-55
2023/07/10 08:58:47;;;;;;;9.10;6.60;;;25.80;55.30;;;;;;223034;1261;22647;-53
2023/07/10 09:03:55;;;;;;;7.00;6.20;;;25.80;55.20;;;;;;222162;1264;24339;-51
2023/07/10 09:09:01;;;;;;;6.70;6.10;;;25.90;55.90;;;;;;222274;1260;24355;-54
2023/07/10 09:14:20;;;;;;;9.70;6.70;;;25.90;56.60;;;;;;222639;1263;26624;-55
2023/07/10 09:19:24;;;;;;;14.10;7.00;;;25.90;55.90;;;;;;222303;1264;23424;-54
2023/07/10 09:24:28;;;;;;;6.50;5.90;;;26.00;55.40;;;;;;222291;1260;24235;-54
2023/07/10 09:29:37;;;;;;;7.20;6.50;;;26.10;56.30;;;;;;222232;1264;24282;-56
2023/07/10 09:34:53;;;;;;;6.60;6.00;;;26.10;56.00;;;;;;222295;1267;25380;-56
2023/07/10 09:39:57;;;;;;;6.30;5.80;;;26.20;55.30;;;;;;222590;1260;24193;-56
2023/07/10 09:45:01;;;;;;;9.00;6.20;;;26.30;55.10;;;;;;222088;1264;22570;-54
2023/07/10 09:50:13;;;;;;;10.20;7.00;;;26.20;55.00;;;;;;222300;1256;26232;-55
2023/07/10 09:55:18;;;;;;;7.70;6.80;;;26.20;55.50;;;;;;222020;1263;22630;-54
2023/07/10 10:00:22;;;;;;;7.60;5.90;;;26.20;55.30;;;;;;222244;1260;22534;-56
2023/07/10 10:05:27;;;;;;;6.60;5.90;;;26.30;55.00;;;;;;222589;1260;22561;-53
2023/07/10 10:10:37;;;;;;;7.00;6.20;;;26.30;55.10;;;;;;222430;1263;22511;-54
2023/07/10 10:15:48;;;;;;;6.20;5.60;;;26.30;55.70;;;;;;222148;1260;22518;-56
2023/07/10 10:20:53;;;;;;;7.60;6.60;;;26.20;56.70;;;;;;222777;1268;25055;-54
2023/07/10 10:26:07;;;;;;;8.00;5.50;;;26.20;57.00;;;;;;222547;1263;22591;-54
2023/07/10 10:31:17;;;;;;;7.10;5.50;;;26.20;56.70;;;;;;222348;1245;24340;-53
2023/07/10 10:36:30;;;;;;;8.90;5.50;;;26.30;56.70;;;;;;222442;1246;22627;-55
2023/07/10 10:41:48;;;;;;;7.00;6.40;;;26.40;55.90;;;;;;222387;1264;24322;-58
2023/07/10 10:47:18;;;;;;;15.40;7.70;;;26.40;56.70;;;;;;222572;1260;26701;-49
2023/07/10 10:53:05;;;;;;;8.00;5.60;;;26.40;57.90;;;;;;222384;1264;22508;-57
2023/07/10 10:58:25;;;;;;;7.20;6.50;;;26.40;59.30;;;;;;222273;1260;27613;-52
2023/07/10 11:03:51;;;;;;;9.00;6.30;;;26.50;59.50;;;;;;225840;1260;22521;-56
2023/07/10 11:09:12;;;;;;;7.30;6.60;;;26.50;59.40;;;;;;222404;1254;24170;-56
2023/07/10 11:14:17;;;;;;;6.90;5.60;;;26.60;59.00;;;;;;222295;1263;22793;-55
2023/07/10 11:19:31;;;;;;;8.40;6.30;;;26.60;58.80;;;;;;222229;1264;22740;-52
2023/07/10 11:24:36;;;;;;;7.40;5.90;;;26.50;58.80;;;;;;222538;1260;22506;-52
2023/07/10 11:29:52;;;;;;;14.10;5.90;;;26.70;58.10;;;;;;230374;1267;22280;-49
2023/07/10 11:35:15;;;;;;;8.70;6.40;;;26.90;57.40;;;;;;223237;1266;22759;-53
2023/07/10 11:40:23;;;;;;;13.00;6.50;;;27.00;57.70;;;;;;222040;1260;24736;-53
2023/07/10 11:45:31;;;;;;;10.10;6.60;;;27.00;56.10;;;;;;222095;1253;22507;-54
2023/07/10 11:50:35;;;;;;;8.20;6.30;;;27.00;55.60;;;;;;222178;1263;25559;-53
2023/07/10 11:56:03;;;;;;;13.40;6.80;;;27.10;54.70;;;;;;222145;1260;24263;-54
2023/07/10 12:01:15;;;;;;;9.80;6.80;;;27.10;53.70;;;;;;222120;1266;24240;-52
2023/07/10 12:06:22;;;;;;;11.40;6.60;;;27.20;53.50;;;;;;222422;1261;22561;-53
2023/07/10 12:11:30;;;;;;;11.00;6.60;;;27.20;53.60;;;;;;222215;1268;22629;-55
2023/07/10 12:16:45;;;;;;;6.30;5.60;;;27.30;53.00;;;;;;222985;1264;22507;-54
2023/07/10 12:22:24;;;;;;;7.70;6.00;;;27.30;53.60;;;;;;222264;1260;24224;-55
2023/07/10 12:27:35;;;;;;;9.10;6.80;;;27.20;54.00;;;;;;222839;1260;22521;-52
2023/07/10 12:32:42;;;;;;;7.50;6.30;;;27.30;53.80;;;;;;222385;1260;22518;-54
2023/07/10 12:37:48;;;;;;;8.10;6.30;;;27.20;53.50;;;;;;222176;1260;22659;-48
2023/07/10 12:42:52;;;;;;;6.80;5.80;;;27.20;53.60;;;;;;222465;1261;24127;-52
2023/07/10 12:48:05;;;;;;;7.90;5.70;;;27.20;53.10;;;;;;222400;1263;24195;-53
2023/07/10 12:53:19;;;;;;;6.80;5.50;;;27.30;53.70;;;;;;222842;1264;24218;-55
2023/07/10 12:58:23;;;;;;;7.40;6.40;;;27.20;54.10;;;;;;222480;1267;25564;-53
2023/07/10 13:03:31;;;;;;;6.80;6.20;;;27.20;55.50;;;;;;222532;1263;24155;-55
2023/07/10 13:08:38;;;;;;;8.00;5.50;;;27.20;55.00;;;;;;222859;1263;22536;-52
2023/07/10 13:13:44;;;;;;;10.00;6.40;;;27.20;54.40;;;;;;222449;1257;22505;-52
2023/07/10 13:18:48;;;;;;;7.80;7.00;;;27.40;53.50;;;;;;222028;1264;24305;-54
2023/07/10 13:23:52;;;;;;;7.40;6.60;;;27.20;54.10;;;;;;222293;1264;22634;-52
2023/07/10 13:28:56;;;;;;;9.40;6.60;;;27.20;54.40;;;;;;222340;1266;24071;-53
2023/07/10 13:34:00;;;;;;;7.10;6.30;;;27.20;54.50;;;;;;222617;1260;22648;-54
2023/07/10 13:39:16;;;;;;;7.10;6.40;;;27.20;54.60;;;;;;222312;1268;24082;-51
2023/07/10 13:44:23;;;;;;;6.90;6.30;;;27.20;54.60;;;;;;222571;1254;22639;-54
2023/07/10 13:49:28;;;;;;;7.40;6.50;;;27.30;55.30;;;;;;222741;1266;22514;-54
2023/07/10 13:54:32;;;;;;;7.40;5.90;;;27.30;55.30;;;;;;222397;1266;22520;-50
2023/07/10 13:59:37;;;;;;;7.30;5.80;;;27.30;55.10;;;;;;222652;1263;22514;-54
2023/07/10 14:04:41;;;;;;;6.30;5.80;;;27.30;55.50;;;;;;222356;1266;23907;-53
2023/07/10 14:09:45;;;;;;;6.80;6.00;;;27.30;55.40;;;;;;222832;1263;22508;-52
2023/07/10 14:14:49;;;;;;;6.50;5.80;;;27.20;55.50;;;;;;222003;1267;198034;-52
2023/07/10 14:19:54;;;;;;;7.50;6.20;;;27.20;55.40;;;;;;222536;1266;24166;-52
2023/07/10 14:24:58;;;;;;;7.20;5.60;;;27.20;55.60;;;;;;222399;1260;24330;-55
2023/07/10 14:30:03;;;;;;;7.00;6.40;;;27.20;55.90;;;;;;222375;1264;22527;-52
2023/07/10 14:35:14;;;;;;;6.40;5.50;;;27.00;56.60;;;;;;222372;1260;23942;-54
2023/07/10 14:40:21;;;;;;;7.20;5.90;;;27.00;56.30;;;;;;222314;1263;22508;-49
2023/07/10 14:45:25;;;;;;;6.60;5.80;;;27.00;56.30;;;;;;222168;1264;22691;-53
2023/07/10 14:50:29;;;;;;;12.80;5.60;;;27.10;56.30;;;;;;222430;1266;22703;-54
2023/07/10 14:55:33;;;;;;;7.00;5.40;;;27.00;57.30;;;;;;222337;1268;24170;-55
2023/07/10 15:00:37;;;;;;;8.40;5.60;;;27.10;56.90;;;;;;222438;1267;22510;-55
2023/07/10 15:05:45;;;;;;;8.90;5.20;;;27.10;58.30;;;;;;222369;1263;25264;-54
2023/07/10 15:10:51;;;;;;;7.50;5.40;;;27.10;58.50;;;;;;222288;1266;22786;-53
2023/07/10 15:15:59;;;;;;;6.20;5.70;;;27.20;58.20;;;;;;222436;1251;22534;-55
2023/07/10 15:21:03;;;;;;;5.60;4.90;;;27.20;58.50;;;;;;222085;1264;22803;-53
2023/07/10 15:26:11;;;;;;;6.30;5.10;;;27.20;58.00;;;;;;222082;1263;25268;-53
2023/07/10 15:31:16;;;;;;;6.10;5.10;;;27.20;58.90;;;;;;222292;1264;24334;-55
2023/07/10 15:36:21;;;;;;;7.00;6.00;;;27.10;58.90;;;;;;222289;1250;24574;-52
2023/07/10 15:41:26;;;;;;;13.60;7.00;;;27.40;63.70;;;;;;222271;1263;24184;-51
2023/07/10 15:46:30;;;;;;;9.50;6.40;;;27.40;62.70;;;;;;222367;1266;22535;-53
2023/07/10 15:51:34;;;;;;;14.80;6.60;;;27.40;63.30;;;;;;221965;1263;22531;-55
2023/07/10 15:56:39;;;;;;;9.30;6.50;;;27.50;63.50;;;;;;221981;1264;22515;-55
2023/07/10 16:01:46;;;;;;;8.50;6.30;;;27.50;64.60;;;;;;222224;1266;22727;-54
2023/07/10 16:06:52;;;;;;;8.40;6.40;;;27.50;64.40;;;;;;222237;1264;22587;-52
2023/07/10 16:11:56;;;;;;;8.40;5.60;;;27.60;62.70;;;;;;221086;1260;24204;-53
2023/07/10 16:17:00;;;;;;;12.10;6.60;;;27.70;62.60;;;;;;221178;1260;22531;-54
2023/07/10 16:22:09;;;;;;;11.50;5.40;;;27.70;62.80;;;;;;221012;1269;22538;-54
2023/07/10 16:27:13;;;;;;;8.60;7.20;;;27.70;63.90;;;;;;221213;1268;22513;-55
2023/07/10 16:32:19;;;;;;;6.30;5.70;;;27.70;63.60;;;;;;222515;1260;22752;-53
2023/07/10 16:37:23;;;;;;;10.70;6.00;;;27.50;61.40;;;;;;222399;1257;22525;-57
2023/07/10 16:42:27;;;;;;;7.90;5.50;;;27.20;61.80;;;;;;222601;1257;24164;-61
2023/07/10 16:47:31;;;;;;;8.70;5.50;;;27.10;61.90;;;;;;222436;1254;22508;-56
2023/07/10 16:52:35;;;;;;;6.10;5.50;;;27.10;62.50;;;;;;222229;1260;22508;-55
2023/07/10 16:57:39;;;;;;;5.80;5.40;;;27.00;61.90;;;;;;222699;1264;22567;-55
2023/07/10 17:02:55;;;;;;;8.20;5.10;;;27.00;62.70;;;;;;222213;1260;22505;-51
2023/07/10 17:08:02;;;;;;;5.70;5.20;;;26.90;61.30;;;;;;223043;1260;22546;-55
2023/07/10 17:13:21;;;;;;;5.90;5.50;;;26.80;61.30;;;;;;222622;1254;22527;-53
2023/07/10 17:18:31;;;;;;;5.00;4.60;;;26.90;60.70;;;;;;223510;1263;22518;-54
2023/07/10 17:23:35;;;;;;;7.70;5.40;;;26.80;61.50;;;;;;222333;1264;25275;-56
2023/07/10 17:28:40;;;;;;;6.40;5.10;;;26.90;61.20;;;;;;222435;1268;22525;-56
2023/07/10 17:33:50;;;;;;;6.50;4.90;;;26.80;61.00;;;;;;222605;1262;24233;-51
2023/07/10 17:38:55;;;;;;;6.10;5.20;;;26.80;61.10;;;;;;222279;1257;24736;-51
2023/07/10 17:44:27;;;;;;;4.80;4.40;;;26.70;60.70;;;;;;222508;1254;22789;-48
2023/07/10 17:49:31;;;;;;;5.50;5.00;;;26.70;60.30;;;;;;222501;1256;25952;-46
2023/07/10 17:54:37;;;;;;;5.60;5.10;;;26.70;60.50;;;;;;222365;1268;24190;-48
2023/07/10 17:59:46;;;;;;;7.10;5.00;;;26.60;60.50;;;;;;222815;1266;25262;-46
2023/07/10 18:04:51;;;;;;;5.90;5.20;;;26.50;60.00;;;;;;222440;1261;22640;-54
2023/07/10 18:09:58;;;;;;;5.10;4.60;;;26.40;59.80;;;;;;222641;1263;24809;-51
2023/07/10 18:15:15;;;;;;;5.70;5.10;;;26.30;59.70;;;;;;222304;1267;22928;-47
2023/07/10 18:20:19;;;;;;;7.50;5.20;;;26.30;60.10;;;;;;222518;1268;25489;-51
2023/07/10 18:25:24;;;;;;;5.40;4.90;;;26.20;60.60;;;;;;222518;1254;25450;-47
2023/07/10 18:30:29;;;;;;;6.90;5.00;;;26.20;61.10;;;;;;222450;1268;23161;-48
2023/07/10 18:35:34;;;;;;;5.70;4.70;;;26.30;61.20;;;;;;222622;1266;24222;-52
2023/07/10 18:40:40;;;;;;;5.90;5.10;;;26.30;62.00;;;;;;222504;1256;22774;-48
2023/07/10 18:45:45;;;;;;;7.20;5.50;;;26.10;62.80;;;;;;222564;1264;24180;-51
2023/07/10 18:51:03;;;;;;;7.30;6.00;;;26.30;63.00;;;;;;222530;1262;22559;-53
2023/07/10 18:56:10;;;;;;;7.80;5.50;;;26.60;62.30;;;;;;222708;1260;25395;-48
2023/07/10 19:01:18;;;;;;;9.10;4.90;;;26.80;62.10;;;;;;223142;1260;22511;-48
2023/07/10 19:06:38;;;;;;;5.20;4.60;;;26.90;61.70;;;;;;222431;1263;22523;-47
2023/07/10 19:11:45;;;;;;;7.00;6.30;;;26.80;62.30;;;;;;222455;1254;22562;-48
2023/07/10 19:16:52;;;;;;;6.70;5.80;;;26.80;62.60;;;;;;222390;1260;22560;-51
2023/07/10 19:21:57;;;;;;;22.20;20.30;;;26.70;62.80;;;;;;222438;1254;22520;-50
2023/07/10 19:27:03;;;;;;;92.20;84.50;;;26.80;63.20;;;;;;222213;1265;24209;-46
2023/07/10 19:32:22;;;;;;;112.00;102.60;;;27.00;62.80;;;;;;222589;1261;22764;-48
2023/07/10 19:37:30;;;;;;;105.50;96.70;;;27.00;63.10;;;;;;223221;1264;22511;-47
2023/07/10 19:42:35;;;;;;;86.30;79.00;;;27.20;63.10;;;;;;222352;1254;22510;-44
2023/07/10 19:47:42;;;;;;;57.20;52.30;;;27.20;63.30;;;;;;222410;1260;22617;-46
2023/07/10 19:52:48;;;;;;;44.90;41.20;;;27.30;63.20;;;;;;222703;1247;27582;-44
2023/07/10 19:57:55;;;;;;;28.80;26.40;;;27.30;62.90;;;;;;222404;1260;24531;-47
2023/07/10 20:03:04;;;;;;;19.10;17.10;;;27.40;62.60;;;;;;222644;1260;25434;-55
2023/07/10 20:08:17;;;;;;;13.60;12.30;;;27.30;62.80;;;;;;222673;1260;23003;-50
2023/07/10 20:13:27;;;;;;;12.90;9.30;;;27.30;63.30;;;;;;222455;1253;24310;-46
2023/07/10 20:18:35;;;;;;;9.00;7.70;;;27.40;63.20;;;;;;222437;1261;22666;-48
2023/07/10 20:23:41;;;;;;;7.90;7.20;;;27.30;62.60;;;;;;222615;1253;25232;-48
2023/07/10 20:28:46;;;;;;;8.20;7.40;;;27.30;62.40;;;;;;222623;1245;24372;-43
2023/07/10 20:33:52;;;;;;;7.40;6.70;;;27.40;62.00;;;;;;222728;1267;22520;-46
2023/07/10 20:39:00;;;;;;;7.10;6.40;;;27.30;62.20;;;;;;222444;1261;22645;-44
2023/07/10 20:44:17;;;;;;;7.50;6.80;;;27.30;61.60;;;;;;222440;1254;25300;-46
2023/07/10 20:49:24;;;;;;;6.80;6.20;;;27.40;61.30;;;;;;222397;1254;25465;-46
2023/07/10 20:54:31;;;;;;;7.20;6.60;;;27.40;61.00;;;;;;222380;1254;22535;-48
2023/07/10 20:59:35;;;;;;;7.70;6.80;;;27.40;61.20;;;;;;222467;1260;24163;-46
2023/07/10 21:04:39;;;;;;;7.30;6.60;;;27.40;60.80;;;;;;222241;1261;22518;-49
2023/07/10 21:09:46;;;;;;;6.90;6.40;;;27.30;60.90;;;;;;222454;1266;24378;-46
2023/07/10 21:14:50;;;;;;;6.90;6.40;;;27.30;60.80;;;;;;222412;1260;24268;-47
2023/07/10 21:19:54;;;;;;;6.90;6.20;;;27.40;60.90;;;;;;222464;1264;26584;-47
2023/07/10 21:24:58;;;;;;;6.50;5.90;;;27.40;60.80;;;;;;222389;1261;23878;-46
2023/07/10 21:30:15;;;;;;;8.30;5.90;;;27.40;60.80;;;;;;222387;1247;24212;-48
2023/07/10 21:35:28;;;;;;;6.40;5.80;;;27.40;60.70;;;;;;222169;1261;25246;-49
2023/07/10 21:40:36;;;;;;;7.90;7.20;;;27.50;60.80;;;;;;222624;1261;22971;-48
2023/07/10 21:45:41;;;;;;;7.10;6.50;;;27.50;61.00;;;;;;222452;1267;24290;-48
2023/07/10 21:50:46;;;;;;;6.70;6.10;;;27.50;60.90;;;;;;222273;1260;22602;-49
2023/07/10 21:55:53;;;;;;;8.30;6.70;;;27.50;61.10;;;;;;222537;1266;26545;-50
2023/07/10 22:00:58;;;;;;;7.30;6.60;;;27.60;61.10;;;;;;222485;1260;22524;-46
2023/07/10 22:06:02;;;;;;;7.10;6.40;;;27.60;60.90;;;;;;222211;1260;24231;-47
2023/07/10 22:11:14;;;;;;;7.40;6.70;;;27.60;61.30;;;;;;222459;1255;22518;-47
2023/07/10 22:16:24;;;;;;;7.80;7.10;;;27.50;61.80;;;;;;222478;1261;24237;-49
2023/07/10 22:21:32;;;;;;;7.40;6.10;;;27.50;61.30;;;;;;222366;1261;25454;-45
2023/07/10 22:26:36;;;;;;;6.80;6.30;;;27.50;61.40;;;;;;222299;1259;25246;-46
2023/07/10 22:31:44;;;;;;;7.30;6.70;;;27.60;61.40;;;;;;222482;1266;22996;-47
2023/07/10 22:36:48;;;;;;;8.00;7.40;;;27.60;61.20;;;;;;222705;1263;22518;-49
2023/07/10 22:41:52;;;;;;;7.90;7.30;;;27.60;61.20;;;;;;222208;1267;22710;-46
2023/07/10 22:47:00;;;;;;;7.70;7.00;;;27.60;60.80;;;;;;222268;1266;22564;-49
2023/07/10 22:52:05;;;;;;;7.10;6.50;;;27.70;61.00;;;;;;222318;1251;22514;-54
2023/07/10 22:57:09;;;;;;;7.40;6.80;;;27.60;61.00;;;;;;222580;1260;22776;-49
2023/07/10 23:02:13;;;;;;;7.00;6.50;;;27.60;60.50;;;;;;222406;1266;22515;-49
2023/07/10 23:07:17;;;;;;;6.70;6.00;;;27.60;60.40;;;;;;222433;1265;22521;-46
2023/07/10 23:12:21;;;;;;;7.30;6.60;;;27.70;60.60;;;;;;222359;1265;25376;-47
2023/07/10 23:17:26;;;;;;;6.40;5.90;;;27.70;60.00;;;;;;222432;1255;22969;-47
2023/07/10 23:22:30;;;;;;;7.00;6.30;;;27.60;60.20;;;;;;222348;1261;22630;-48
2023/07/10 23:27:34;;;;;;;7.60;7.00;;;27.50;60.20;;;;;;222406;1261;22523;-47
2023/07/10 23:32:39;;;;;;;6.60;6.10;;;27.50;60.20;;;;;;222419;1261;25224;-50
2023/07/10 23:37:44;;;;;;;6.70;6.10;;;27.50;60.20;;;;;;222086;1250;22507;-50
2023/07/10 23:42:49;;;;;;;7.20;6.50;;;27.60;60.00;;;;;;227271;1249;24637;-47
2023/07/10 23:47:54;;;;;;;7.20;5.50;;;27.70;59.60;;;;;;225276;1266;22768;-46
2023/07/10 23:52:58;;;;;;;6.60;5.90;;;27.70;59.20;;;;;;225350;1264;22524;-48
2023/07/10 23:58:02;;;;;;;7.00;6.40;;;27.70;59.60;;;;;;222241;1264;22512;-49
